sensor_id;sensor_type;location;lat;lon;timestamp;P1;durP1;ratioP1;P2;durP2;ratioP2
48849;SDS011;63210;53.370;6.770;2023-05-07T00:00:06;22.33;;;17.58;;
48849;SDS011;63210;53.370;6.770;2023-05-07T00:02:34;28.90;;;19.45;;
48849;SDS011;63210;53.370;6.770;2023-05-07T00:04:59;26.88;;;18.38;;
48849;SDS011;63210;53.370;6.770;2023-05-07T00:07:25;25.45;;;19.60;;
48849;SDS011;63210;53.370;6.770;2023-05-07T00:09:50;28.80;;;21.13;;
48849;SDS011;63210;53.370;6.770;2023-05-07T00:12:15;26.05;;;16.95;;
48849;SDS011;63210;53.370;6.770;2023-05-07T00:14:40;28.75;;;17.67;;
48849;SDS011;63210;53.370;6.770;2023-05-07T00:17:06;30.55;;;19.92;;
48849;SDS011;63210;53.370;6.770;2023-05-07T00:19:31;31.13;;;20.35;;
48849;SDS011;63210;53.370;6.770;2023-05-07T00:21:57;32.17;;;20.33;;
48849;SDS011;63210;53.370;6.770;2023-05-07T00:24:23;29.67;;;19.35;;
48849;SDS011;63210;53.370;6.770;2023-05-07T00:26:48;30.85;;;19.73;;
48849;SDS011;63210;53.370;6.770;2023-05-07T00:29:14;19.25;;;14.48;;
48849;SDS011;63210;53.370;6.770;2023-05-07T00:31:39;26.67;;;19.35;;
48849;SDS011;63210;53.370;6.770;2023-05-07T00:34:04;33.67;;;23.08;;
48849;SDS011;63210;53.370;6.770;2023-05-07T00:36:30;30.38;;;20.80;;
48849;SDS011;63210;53.370;6.770;2023-05-07T00:38:56;32.95;;;23.38;;
48849;SDS011;63210;53.370;6.770;2023-05-07T00:41:21;32.70;;;22.25;;
48849;SDS011;63210;53.370;6.770;2023-05-07T00:43:47;37.28;;;22.88;;
48849;SDS011;63210;53.370;6.770;2023-05-07T00:46:13;33.35;;;22.73;;
48849;SDS011;63210;53.370;6.770;2023-05-07T00:48:38;33.60;;;22.33;;
48849;SDS011;63210;53.370;6.770;2023-05-07T00:51:03;30.15;;;20.92;;
48849;SDS011;63210;53.370;6.770;2023-05-07T00:53:29;30.85;;;22.17;;
48849;SDS011;63210;53.370;6.770;2023-05-07T00:55:55;32.60;;;20.92;;
48849;SDS011;63210;53.370;6.770;2023-05-07T00:58:21;30.38;;;19.40;;
48849;SDS011;63210;53.370;6.770;2023-05-07T01:00:46;29.73;;;20.77;;
48849;SDS011;63210;53.370;6.770;2023-05-07T01:03:11;30.60;;;21.27;;
48849;SDS011;63210;53.370;6.770;2023-05-07T01:05:36;27.17;;;18.27;;
48849;SDS011;63210;53.370;6.770;2023-05-07T01:08:02;32.75;;;19.85;;
48849;SDS011;63210;53.370;6.770;2023-05-07T01:10:27;34.80;;;21.60;;
48849;SDS011;63210;53.370;6.770;2023-05-07T01:12:55;30.50;;;20.95;;
48849;SDS011;63210;53.370;6.770;2023-05-07T01:15:20;28.33;;;17.83;;
48849;SDS011;63210;53.370;6.770;2023-05-07T01:17:45;32.70;;;23.17;;
48849;SDS011;63210;53.370;6.770;2023-05-07T01:20:11;34.50;;;22.67;;
48849;SDS011;63210;53.370;6.770;2023-05-07T01:22:37;34.22;;;22.77;;
48849;SDS011;63210;53.370;6.770;2023-05-07T01:25:03;34.72;;;24.02;;
48849;SDS011;63210;53.370;6.770;2023-05-07T01:27:28;34.72;;;22.30;;
48849;SDS011;63210;53.370;6.770;2023-05-07T01:29:54;39.92;;;26.42;;
48849;SDS011;63210;53.370;6.770;2023-05-07T01:32:23;31.38;;;20.00;;
48849;SDS011;63210;53.370;6.770;2023-05-07T01:34:51;37.72;;;24.92;;
48849;SDS011;63210;53.370;6.770;2023-05-07T01:37:17;33.83;;;23.80;;
48849;SDS011;63210;53.370;6.770;2023-05-07T01:39:43;37.88;;;23.27;;
48849;SDS011;63210;53.370;6.770;2023-05-07T01:42:08;38.70;;;24.50;;
48849;SDS011;63210;53.370;6.770;2023-05-07T01:44:36;37.92;;;24.83;;
48849;SDS011;63210;53.370;6.770;2023-05-07T01:47:02;38.35;;;25.42;;
48849;SDS011;63210;53.370;6.770;2023-05-07T01:49:27;40.25;;;26.40;;
48849;SDS011;63210;53.370;6.770;2023-05-07T01:51:53;39.70;;;26.30;;
48849;SDS011;63210;53.370;6.770;2023-05-07T01:54:18;37.60;;;25.60;;
48849;SDS011;63210;53.370;6.770;2023-05-07T01:56:43;37.65;;;25.08;;
48849;SDS011;63210;53.370;6.770;2023-05-07T01:59:09;40.67;;;25.95;;
48849;SDS011;63210;53.370;6.770;2023-05-07T02:01:34;41.38;;;28.30;;
48849;SDS011;63210;53.370;6.770;2023-05-07T02:03:59;41.08;;;27.90;;
48849;SDS011;63210;53.370;6.770;2023-05-07T02:06:25;41.80;;;28.67;;
48849;SDS011;63210;53.370;6.770;2023-05-07T02:08:50;34.90;;;21.70;;
48849;SDS011;63210;53.370;6.770;2023-05-07T02:11:15;42.42;;;27.88;;
48849;SDS011;63210;53.370;6.770;2023-05-07T02:13:41;44.60;;;31.70;;
48849;SDS011;63210;53.370;6.770;2023-05-07T02:16:06;38.25;;;27.52;;
48849;SDS011;63210;53.370;6.770;2023-05-07T02:18:31;38.88;;;25.52;;
48849;SDS011;63210;53.370;6.770;2023-05-07T02:20:57;35.80;;;24.77;;
48849;SDS011;63210;53.370;6.770;2023-05-07T02:23:22;32.45;;;22.77;;
48849;SDS011;63210;53.370;6.770;2023-05-07T02:25:47;38.20;;;23.40;;
48849;SDS011;63210;53.370;6.770;2023-05-07T02:28:13;35.67;;;22.27;;
48849;SDS011;63210;53.370;6.770;2023-05-07T02:30:38;33.92;;;21.80;;
48849;SDS011;63210;53.370;6.770;2023-05-07T02:33:04;33.38;;;22.92;;
48849;SDS011;63210;53.370;6.770;2023-05-07T02:35:29;32.70;;;23.00;;
48849;SDS011;63210;53.370;6.770;2023-05-07T02:37:54;34.45;;;22.13;;
48849;SDS011;63210;53.370;6.770;2023-05-07T02:40:20;36.35;;;24.25;;
48849;SDS011;63210;53.370;6.770;2023-05-07T02:42:45;41.80;;;24.92;;
48849;SDS011;63210;53.370;6.770;2023-05-07T02:45:10;37.80;;;25.58;;
48849;SDS011;63210;53.370;6.770;2023-05-07T02:47:36;34.67;;;23.10;;
48849;SDS011;63210;53.370;6.770;2023-05-07T02:50:01;43.05;;;25.90;;
48849;SDS011;63210;53.370;6.770;2023-05-07T02:52:26;45.28;;;28.33;;
48849;SDS011;63210;53.370;6.770;2023-05-07T02:54:51;36.00;;;22.38;;
48849;SDS011;63210;53.370;6.770;2023-05-07T02:57:17;52.80;;;34.78;;
48849;SDS011;63210;53.370;6.770;2023-05-07T02:59:42;48.92;;;30.92;;
48849;SDS011;63210;53.370;6.770;2023-05-07T03:02:07;58.17;;;35.03;;
48849;SDS011;63210;53.370;6.770;2023-05-07T03:04:33;51.95;;;33.38;;
48849;SDS011;63210;53.370;6.770;2023-05-07T03:06:58;51.95;;;31.85;;
48849;SDS011;63210;53.370;6.770;2023-05-07T03:09:23;50.28;;;31.75;;
48849;SDS011;63210;53.370;6.770;2023-05-07T03:11:48;50.63;;;32.40;;
48849;SDS011;63210;53.370;6.770;2023-05-07T03:14:14;40.38;;;24.65;;
48849;SDS011;63210;53.370;6.770;2023-05-07T03:16:39;47.13;;;32.60;;
48849;SDS011;63210;53.370;6.770;2023-05-07T03:19:05;49.58;;;30.95;;
48849;SDS011;63210;53.370;6.770;2023-05-07T03:21:30;49.60;;;32.33;;
48849;SDS011;63210;53.370;6.770;2023-05-07T03:23:58;56.58;;;34.65;;
48849;SDS011;63210;53.370;6.770;2023-05-07T03:26:23;42.83;;;28.25;;
48849;SDS011;63210;53.370;6.770;2023-05-07T03:28:49;50.53;;;33.35;;
48849;SDS011;63210;53.370;6.770;2023-05-07T03:31:14;49.72;;;34.20;;
48849;SDS011;63210;53.370;6.770;2023-05-07T03:33:49;50.40;;;32.25;;
48849;SDS011;63210;53.370;6.770;2023-05-07T03:36:15;45.63;;;29.40;;
48849;SDS011;63210;53.370;6.770;2023-05-07T03:38:41;46.20;;;31.25;;
48849;SDS011;63210;53.370;6.770;2023-05-07T03:41:06;49.00;;;31.25;;
48849;SDS011;63210;53.370;6.770;2023-05-07T03:43:31;45.67;;;29.40;;
48849;SDS011;63210;53.370;6.770;2023-05-07T03:45:56;41.77;;;24.90;;
48849;SDS011;63210;53.370;6.770;2023-05-07T03:48:22;39.33;;;26.90;;
48849;SDS011;63210;53.370;6.770;2023-05-07T03:50:47;26.00;;;17.27;;
48849;SDS011;63210;53.370;6.770;2023-05-07T03:53:12;39.38;;;26.20;;
48849;SDS011;63210;53.370;6.770;2023-05-07T03:55:38;37.35;;;23.30;;
48849;SDS011;63210;53.370;6.770;2023-05-07T03:58:03;37.35;;;24.92;;
48849;SDS011;63210;53.370;6.770;2023-05-07T04:00:28;38.30;;;26.23;;
48849;SDS011;63210;53.370;6.770;2023-05-07T04:02:54;41.13;;;27.13;;
48849;SDS011;63210;53.370;6.770;2023-05-07T04:05:19;42.42;;;28.40;;
48849;SDS011;63210;53.370;6.770;2023-05-07T04:07:44;35.75;;;24.65;;
48849;SDS011;63210;53.370;6.770;2023-05-07T04:10:10;43.65;;;30.23;;
48849;SDS011;63210;53.370;6.770;2023-05-07T04:12:35;50.13;;;32.40;;
48849;SDS011;63210;53.370;6.770;2023-05-07T04:15:00;51.28;;;32.03;;
48849;SDS011;63210;53.370;6.770;2023-05-07T04:17:25;46.83;;;29.37;;
48849;SDS011;63210;53.370;6.770;2023-05-07T04:19:51;36.63;;;21.58;;
48849;SDS011;63210;53.370;6.770;2023-05-07T04:22:16;47.65;;;31.42;;
48849;SDS011;63210;53.370;6.770;2023-05-07T04:24:41;37.47;;;23.93;;
48849;SDS011;63210;53.370;6.770;2023-05-07T04:27:06;40.13;;;26.05;;
48849;SDS011;63210;53.370;6.770;2023-05-07T04:29:32;43.88;;;26.85;;
48849;SDS011;63210;53.370;6.770;2023-05-07T04:31:57;36.72;;;23.73;;
48849;SDS011;63210;53.370;6.770;2023-05-07T04:34:23;32.45;;;22.63;;
48849;SDS011;63210;53.370;6.770;2023-05-07T04:36:48;35.97;;;23.35;;
48849;SDS011;63210;53.370;6.770;2023-05-07T04:39:14;37.13;;;24.30;;
48849;SDS011;63210;53.370;6.770;2023-05-07T04:41:40;37.80;;;25.50;;
48849;SDS011;63210;53.370;6.770;2023-05-07T04:44:05;36.95;;;26.10;;
48849;SDS011;63210;53.370;6.770;2023-05-07T04:46:31;39.70;;;26.35;;
48849;SDS011;63210;53.370;6.770;2023-05-07T04:48:56;35.97;;;23.58;;
48849;SDS011;63210;53.370;6.770;2023-05-07T04:51:22;38.55;;;25.48;;
48849;SDS011;63210;53.370;6.770;2023-05-07T04:53:47;32.55;;;21.73;;
48849;SDS011;63210;53.370;6.770;2023-05-07T04:56:12;39.90;;;27.35;;
48849;SDS011;63210;53.370;6.770;2023-05-07T04:58:38;36.55;;;22.52;;
48849;SDS011;63210;53.370;6.770;2023-05-07T05:01:03;37.38;;;24.52;;
48849;SDS011;63210;53.370;6.770;2023-05-07T05:03:29;34.45;;;25.05;;
48849;SDS011;63210;53.370;6.770;2023-05-07T05:05:55;36.60;;;23.25;;
48849;SDS011;63210;53.370;6.770;2023-05-07T05:08:22;30.48;;;21.58;;
48849;SDS011;63210;53.370;6.770;2023-05-07T05:10:47;35.10;;;23.42;;
48849;SDS011;63210;53.370;6.770;2023-05-07T05:13:14;29.20;;;22.35;;
48849;SDS011;63210;53.370;6.770;2023-05-07T05:15:40;31.35;;;23.40;;
48849;SDS011;63210;53.370;6.770;2023-05-07T05:18:05;35.08;;;23.70;;
48849;SDS011;63210;53.370;6.770;2023-05-07T05:20:30;28.90;;;20.73;;
48849;SDS011;63210;53.370;6.770;2023-05-07T05:22:55;31.70;;;21.80;;
48849;SDS011;63210;53.370;6.770;2023-05-07T05:25:21;28.95;;;21.23;;
48849;SDS011;63210;53.370;6.770;2023-05-07T05:27:46;33.35;;;22.75;;
48849;SDS011;63210;53.370;6.770;2023-05-07T05:30:11;28.80;;;17.45;;
48849;SDS011;63210;53.370;6.770;2023-05-07T05:32:37;28.23;;;19.75;;
48849;SDS011;63210;53.370;6.770;2023-05-07T05:35:03;36.43;;;23.77;;
48849;SDS011;63210;53.370;6.770;2023-05-07T05:37:28;36.67;;;26.48;;
48849;SDS011;63210;53.370;6.770;2023-05-07T05:39:55;26.25;;;18.45;;
48849;SDS011;63210;53.370;6.770;2023-05-07T05:42:20;22.10;;;15.30;;
48849;SDS011;63210;53.370;6.770;2023-05-07T05:44:46;32.47;;;22.23;;
48849;SDS011;63210;53.370;6.770;2023-05-07T05:47:11;31.90;;;23.38;;
48849;SDS011;63210;53.370;6.770;2023-05-07T05:49:36;31.77;;;21.92;;
48849;SDS011;63210;53.370;6.770;2023-05-07T05:52:01;35.78;;;24.50;;
48849;SDS011;63210;53.370;6.770;2023-05-07T05:54:27;29.63;;;17.88;;
48849;SDS011;63210;53.370;6.770;2023-05-07T05:56:52;31.40;;;21.55;;
48849;SDS011;63210;53.370;6.770;2023-05-07T05:59:17;32.33;;;21.35;;
48849;SDS011;63210;53.370;6.770;2023-05-07T06:01:43;35.22;;;26.50;;
48849;SDS011;63210;53.370;6.770;2023-05-07T06:04:08;34.83;;;22.98;;
48849;SDS011;63210;53.370;6.770;2023-05-07T06:06:33;34.42;;;21.80;;
48849;SDS011;63210;53.370;6.770;2023-05-07T06:08:59;30.02;;;19.92;;
48849;SDS011;63210;53.370;6.770;2023-05-07T06:11:24;34.72;;;22.83;;
48849;SDS011;63210;53.370;6.770;2023-05-07T06:13:50;34.92;;;22.35;;
48849;SDS011;63210;53.370;6.770;2023-05-07T06:16:15;30.92;;;21.88;;
48849;SDS011;63210;53.370;6.770;2023-05-07T06:18:40;35.03;;;23.77;;
48849;SDS011;63210;53.370;6.770;2023-05-07T06:21:06;38.47;;;24.15;;
48849;SDS011;63210;53.370;6.770;2023-05-07T06:23:31;28.13;;;17.75;;
48849;SDS011;63210;53.370;6.770;2023-05-07T06:25:56;36.33;;;23.10;;
48849;SDS011;63210;53.370;6.770;2023-05-07T06:28:22;30.75;;;21.92;;
48849;SDS011;63210;53.370;6.770;2023-05-07T06:30:47;36.80;;;23.58;;
48849;SDS011;63210;53.370;6.770;2023-05-07T06:33:14;32.15;;;19.88;;
48849;SDS011;63210;53.370;6.770;2023-05-07T06:35:40;38.08;;;25.15;;
48849;SDS011;63210;53.370;6.770;2023-05-07T06:38:05;34.72;;;23.10;;
48849;SDS011;63210;53.370;6.770;2023-05-07T06:40:30;33.50;;;23.77;;
48849;SDS011;63210;53.370;6.770;2023-05-07T06:42:55;37.78;;;25.52;;
48849;SDS011;63210;53.370;6.770;2023-05-07T06:45:21;36.63;;;24.33;;
48849;SDS011;63210;53.370;6.770;2023-05-07T06:47:46;26.60;;;17.05;;
48849;SDS011;63210;53.370;6.770;2023-05-07T06:50:11;30.67;;;20.70;;
48849;SDS011;63210;53.370;6.770;2023-05-07T06:52:36;22.20;;;12.63;;
48849;SDS011;63210;53.370;6.770;2023-05-07T06:55:02;33.03;;;19.53;;
48849;SDS011;63210;53.370;6.770;2023-05-07T06:57:27;33.13;;;20.38;;
48849;SDS011;63210;53.370;6.770;2023-05-07T06:59:52;31.83;;;20.45;;
48849;SDS011;63210;53.370;6.770;2023-05-07T07:02:18;35.25;;;23.33;;
48849;SDS011;63210;53.370;6.770;2023-05-07T07:04:43;32.35;;;19.77;;
48849;SDS011;63210;53.370;6.770;2023-05-07T07:07:09;37.80;;;24.23;;
48849;SDS011;63210;53.370;6.770;2023-05-07T07:09:35;29.88;;;19.08;;
48849;SDS011;63210;53.370;6.770;2023-05-07T07:12:00;35.58;;;23.00;;
48849;SDS011;63210;53.370;6.770;2023-05-07T07:14:25;33.78;;;21.83;;
48849;SDS011;63210;53.370;6.770;2023-05-07T07:16:51;38.25;;;24.27;;
48849;SDS011;63210;53.370;6.770;2023-05-07T07:19:16;37.10;;;23.90;;
48849;SDS011;63210;53.370;6.770;2023-05-07T07:21:41;38.00;;;25.33;;
48849;SDS011;63210;53.370;6.770;2023-05-07T07:24:07;42.45;;;25.38;;
48849;SDS011;63210;53.370;6.770;2023-05-07T07:26:32;30.80;;;16.13;;
48849;SDS011;63210;53.370;6.770;2023-05-07T07:28:57;31.25;;;18.88;;
48849;SDS011;63210;53.370;6.770;2023-05-07T07:31:22;33.10;;;22.67;;
48849;SDS011;63210;53.370;6.770;2023-05-07T07:33:48;41.97;;;27.47;;
48849;SDS011;63210;53.370;6.770;2023-05-07T07:36:15;42.10;;;28.73;;
48849;SDS011;63210;53.370;6.770;2023-05-07T07:38:40;41.90;;;27.83;;
48849;SDS011;63210;53.370;6.770;2023-05-07T07:41:07;42.37;;;27.30;;
48849;SDS011;63210;53.370;6.770;2023-05-07T07:43:32;38.80;;;25.27;;
48849;SDS011;63210;53.370;6.770;2023-05-07T07:45:58;45.40;;;27.43;;
48849;SDS011;63210;53.370;6.770;2023-05-07T07:48:23;39.50;;;25.00;;
48849;SDS011;63210;53.370;6.770;2023-05-07T07:50:49;33.42;;;21.05;;
48849;SDS011;63210;53.370;6.770;2023-05-07T07:53:15;43.15;;;29.58;;
48849;SDS011;63210;53.370;6.770;2023-05-07T07:55:40;41.72;;;25.52;;
48849;SDS011;63210;53.370;6.770;2023-05-07T07:58:05;41.13;;;25.75;;
48849;SDS011;63210;53.370;6.770;2023-05-07T08:00:31;23.17;;;14.50;;
48849;SDS011;63210;53.370;6.770;2023-05-07T08:02:56;39.30;;;23.30;;
48849;SDS011;63210;53.370;6.770;2023-05-07T08:05:21;33.92;;;20.88;;
48849;SDS011;63210;53.370;6.770;2023-05-07T08:07:47;38.67;;;24.20;;
48849;SDS011;63210;53.370;6.770;2023-05-07T08:10:16;36.65;;;25.17;;
48849;SDS011;63210;53.370;6.770;2023-05-07T08:12:46;39.28;;;23.92;;
48849;SDS011;63210;53.370;6.770;2023-05-07T08:15:11;32.92;;;22.60;;
48849;SDS011;63210;53.370;6.770;2023-05-07T08:17:36;38.83;;;23.58;;
48849;SDS011;63210;53.370;6.770;2023-05-07T08:20:02;36.80;;;24.30;;
48849;SDS011;63210;53.370;6.770;2023-05-07T08:22:27;40.45;;;27.35;;
48849;SDS011;63210;53.370;6.770;2023-05-07T08:24:52;42.50;;;27.40;;
48849;SDS011;63210;53.370;6.770;2023-05-07T08:27:18;42.70;;;29.45;;
48849;SDS011;63210;53.370;6.770;2023-05-07T08:29:43;39.22;;;21.35;;
48849;SDS011;63210;53.370;6.770;2023-05-07T08:32:12;44.08;;;28.17;;
48849;SDS011;63210;53.370;6.770;2023-05-07T08:34:37;43.60;;;29.50;;
48849;SDS011;63210;53.370;6.770;2023-05-07T08:37:02;46.28;;;31.17;;
48849;SDS011;63210;53.370;6.770;2023-05-07T08:39:28;39.65;;;26.85;;
48849;SDS011;63210;53.370;6.770;2023-05-07T08:41:54;46.67;;;34.27;;
48849;SDS011;63210;53.370;6.770;2023-05-07T08:44:20;41.08;;;26.98;;
48849;SDS011;63210;53.370;6.770;2023-05-07T08:46:46;42.22;;;30.23;;
48849;SDS011;63210;53.370;6.770;2023-05-07T08:49:13;40.97;;;28.58;;
48849;SDS011;63210;53.370;6.770;2023-05-07T08:51:38;40.97;;;27.92;;
48849;SDS011;63210;53.370;6.770;2023-05-07T08:54:04;38.63;;;28.02;;
48849;SDS011;63210;53.370;6.770;2023-05-07T08:56:29;43.28;;;32.10;;
48849;SDS011;63210;53.370;6.770;2023-05-07T08:58:55;36.78;;;24.48;;
48849;SDS011;63210;53.370;6.770;2023-05-07T09:01:23;40.25;;;28.98;;
48849;SDS011;63210;53.370;6.770;2023-05-07T09:03:49;39.85;;;28.67;;
48849;SDS011;63210;53.370;6.770;2023-05-07T09:06:15;41.38;;;29.83;;
48849;SDS011;63210;53.370;6.770;2023-05-07T09:08:40;45.70;;;33.85;;
48849;SDS011;63210;53.370;6.770;2023-05-07T09:11:05;45.63;;;34.08;;
48849;SDS011;63210;53.370;6.770;2023-05-07T09:13:31;44.60;;;31.08;;
48849;SDS011;63210;53.370;6.770;2023-05-07T09:15:56;42.00;;;30.17;;
48849;SDS011;63210;53.370;6.770;2023-05-07T09:18:23;44.40;;;29.92;;
48849;SDS011;63210;53.370;6.770;2023-05-07T09:20:49;38.63;;;26.13;;
48849;SDS011;63210;53.370;6.770;2023-05-07T09:23:14;39.47;;;30.33;;
48849;SDS011;63210;53.370;6.770;2023-05-07T09:25:40;40.03;;;29.73;;
48849;SDS011;63210;53.370;6.770;2023-05-07T09:28:05;40.53;;;29.77;;
48849;SDS011;63210;53.370;6.770;2023-05-07T09:30:35;42.72;;;32.53;;
48849;SDS011;63210;53.370;6.770;2023-05-07T09:33:01;31.65;;;23.08;;
48849;SDS011;63210;53.370;6.770;2023-05-07T09:35:27;42.63;;;32.47;;
48849;SDS011;63210;53.370;6.770;2023-05-07T09:38:01;44.42;;;34.97;;
48849;SDS011;63210;53.370;6.770;2023-05-07T09:40:28;43.88;;;34.83;;
48849;SDS011;63210;53.370;6.770;2023-05-07T09:42:54;40.55;;;32.50;;
48849;SDS011;63210;53.370;6.770;2023-05-07T09:45:26;34.47;;;25.55;;
48849;SDS011;63210;53.370;6.770;2023-05-07T09:47:54;41.33;;;33.13;;
48849;SDS011;63210;53.370;6.770;2023-05-07T09:50:20;38.40;;;30.30;;
48849;SDS011;63210;53.370;6.770;2023-05-07T09:52:46;40.65;;;35.50;;
48849;SDS011;63210;53.370;6.770;2023-05-07T09:55:12;43.75;;;36.38;;
48849;SDS011;63210;53.370;6.770;2023-05-07T09:57:37;41.92;;;34.67;;
48849;SDS011;63210;53.370;6.770;2023-05-07T10:00:03;40.70;;;33.67;;
48849;SDS011;63210;53.370;6.770;2023-05-07T10:02:29;41.65;;;34.35;;
48849;SDS011;63210;53.370;6.770;2023-05-07T10:04:55;39.45;;;32.60;;
48849;SDS011;63210;53.370;6.770;2023-05-07T10:07:20;40.22;;;31.95;;
48849;SDS011;63210;53.370;6.770;2023-05-07T10:09:46;41.53;;;35.10;;
48849;SDS011;63210;53.370;6.770;2023-05-07T10:12:11;39.50;;;31.33;;
48849;SDS011;63210;53.370;6.770;2023-05-07T10:14:37;36.88;;;31.05;;
48849;SDS011;63210;53.370;6.770;2023-05-07T10:17:02;40.85;;;35.35;;
48849;SDS011;63210;53.370;6.770;2023-05-07T10:19:28;34.08;;;26.88;;
48849;SDS011;63210;53.370;6.770;2023-05-07T10:21:55;41.17;;;32.88;;
48849;SDS011;63210;53.370;6.770;2023-05-07T10:24:24;38.42;;;30.75;;
48849;SDS011;63210;53.370;6.770;2023-05-07T10:26:51;37.70;;;33.03;;
48849;SDS011;63210;53.370;6.770;2023-05-07T10:29:37;39.70;;;32.55;;
48849;SDS011;63210;53.370;6.770;2023-05-07T10:34:36;41.70;;;36.38;;
48849;SDS011;63210;53.370;6.770;2023-05-07T10:37:02;44.20;;;36.20;;
48849;SDS011;63210;53.370;6.770;2023-05-07T10:39:28;43.85;;;36.38;;
48849;SDS011;63210;53.370;6.770;2023-05-07T10:41:53;46.15;;;38.10;;
48849;SDS011;63210;53.370;6.770;2023-05-07T10:44:28;39.90;;;31.50;;
48849;SDS011;63210;53.370;6.770;2023-05-07T10:47:03;36.28;;;31.08;;
48849;SDS011;63210;53.370;6.770;2023-05-07T10:49:29;35.90;;;31.35;;
48849;SDS011;63210;53.370;6.770;2023-05-07T10:54:39;39.90;;;33.17;;
48849;SDS011;63210;53.370;6.770;2023-05-07T10:59:49;41.90;;;33.50;;
48849;SDS011;63210;53.370;6.770;2023-05-07T11:02:14;33.83;;;27.60;;
48849;SDS011;63210;53.370;6.770;2023-05-07T11:04:40;42.50;;;37.92;;
48849;SDS011;63210;53.370;6.770;2023-05-07T11:12:15;37.15;;;32.40;;
48849;SDS011;63210;53.370;6.770;2023-05-07T11:17:07;28.63;;;24.38;;
48849;SDS011;63210;53.370;6.770;2023-05-07T11:19:49;29.25;;;25.50;;
48849;SDS011;63210;53.370;6.770;2023-05-07T11:24:55;35.83;;;31.95;;
48849;SDS011;63210;53.370;6.770;2023-05-07T11:27:24;35.22;;;28.95;;
48849;SDS011;63210;53.370;6.770;2023-05-07T11:29:49;37.38;;;31.50;;
48849;SDS011;63210;53.370;6.770;2023-05-07T11:32:15;37.45;;;30.50;;
48849;SDS011;63210;53.370;6.770;2023-05-07T11:34:41;36.13;;;32.03;;
48849;SDS011;63210;53.370;6.770;2023-05-07T11:37:06;33.95;;;28.05;;
48849;SDS011;63210;53.370;6.770;2023-05-07T11:39:32;29.15;;;22.10;;
48849;SDS011;63210;53.370;6.770;2023-05-07T11:41:58;32.95;;;28.35;;
48849;SDS011;63210;53.370;6.770;2023-05-07T11:44:23;44.20;;;36.50;;
48849;SDS011;63210;53.370;6.770;2023-05-07T11:46:49;41.58;;;32.88;;
48849;SDS011;63210;53.370;6.770;2023-05-07T11:49:14;40.53;;;31.33;;
48849;SDS011;63210;53.370;6.770;2023-05-07T11:51:40;37.55;;;30.92;;
48849;SDS011;63210;53.370;6.770;2023-05-07T11:54:07;44.25;;;38.10;;
48849;SDS011;63210;53.370;6.770;2023-05-07T11:56:34;45.83;;;41.00;;
48849;SDS011;63210;53.370;6.770;2023-05-07T11:58:59;41.95;;;37.45;;
48849;SDS011;63210;53.370;6.770;2023-05-07T12:01:24;35.87;;;30.77;;
48849;SDS011;63210;53.370;6.770;2023-05-07T12:03:50;34.83;;;31.17;;
48849;SDS011;63210;53.370;6.770;2023-05-07T12:06:16;34.87;;;31.20;;
48849;SDS011;63210;53.370;6.770;2023-05-07T12:08:42;39.92;;;35.55;;
48849;SDS011;63210;53.370;6.770;2023-05-07T12:11:08;39.28;;;35.28;;
48849;SDS011;63210;53.370;6.770;2023-05-07T12:13:34;36.25;;;32.33;;
48849;SDS011;63210;53.370;6.770;2023-05-07T12:16:00;36.88;;;32.65;;
48849;SDS011;63210;53.370;6.770;2023-05-07T12:18:28;37.25;;;32.10;;
48849;SDS011;63210;53.370;6.770;2023-05-07T12:20:53;39.15;;;35.15;;
48849;SDS011;63210;53.370;6.770;2023-05-07T12:23:19;37.67;;;33.70;;
48849;SDS011;63210;53.370;6.770;2023-05-07T12:25:45;34.85;;;29.25;;
48849;SDS011;63210;53.370;6.770;2023-05-07T12:28:13;38.58;;;34.63;;
48849;SDS011;63210;53.370;6.770;2023-05-07T12:30:40;40.08;;;35.90;;
48849;SDS011;63210;53.370;6.770;2023-05-07T12:33:06;31.63;;;26.65;;
48849;SDS011;63210;53.370;6.770;2023-05-07T12:35:42;38.35;;;34.55;;
48849;SDS011;63210;53.370;6.770;2023-05-07T12:38:08;33.28;;;29.77;;
48849;SDS011;63210;53.370;6.770;2023-05-07T12:40:40;34.85;;;31.17;;
48849;SDS011;63210;53.370;6.770;2023-05-07T12:43:06;33.45;;;30.27;;
48849;SDS011;63210;53.370;6.770;2023-05-07T12:45:31;26.83;;;24.23;;
48849;SDS011;63210;53.370;6.770;2023-05-07T12:48:01;23.27;;;20.77;;
48849;SDS011;63210;53.370;6.770;2023-05-07T12:50:30;26.83;;;24.33;;
48849;SDS011;63210;53.370;6.770;2023-05-07T12:52:56;26.17;;;23.60;;
48849;SDS011;63210;53.370;6.770;2023-05-07T12:55:21;30.13;;;27.25;;
48849;SDS011;63210;53.370;6.770;2023-05-07T12:57:49;32.22;;;29.20;;
48849;SDS011;63210;53.370;6.770;2023-05-07T13:00:15;29.15;;;26.40;;
48849;SDS011;63210;53.370;6.770;2023-05-07T13:02:41;27.85;;;25.20;;
48849;SDS011;63210;53.370;6.770;2023-05-07T13:05:07;31.40;;;28.48;;
48849;SDS011;63210;53.370;6.770;2023-05-07T13:07:32;31.25;;;28.15;;
48849;SDS011;63210;53.370;6.770;2023-05-07T13:09:58;31.63;;;28.60;;
48849;SDS011;63210;53.370;6.770;2023-05-07T13:12:23;31.38;;;28.27;;
48849;SDS011;63210;53.370;6.770;2023-05-07T13:14:48;29.95;;;27.10;;
48849;SDS011;63210;53.370;6.770;2023-05-07T13:17:14;30.77;;;27.80;;
48849;SDS011;63210;53.370;6.770;2023-05-07T13:19:39;27.13;;;24.63;;
48849;SDS011;63210;53.370;6.770;2023-05-07T13:22:04;30.67;;;27.98;;
48849;SDS011;63210;53.370;6.770;2023-05-07T13:24:30;29.92;;;27.02;;
48849;SDS011;63210;53.370;6.770;2023-05-07T13:26:55;31.67;;;28.67;;
48849;SDS011;63210;53.370;6.770;2023-05-07T13:29:21;28.52;;;25.85;;
48849;SDS011;63210;53.370;6.770;2023-05-07T13:31:53;27.23;;;24.52;;
48849;SDS011;63210;53.370;6.770;2023-05-07T13:34:18;24.33;;;21.92;;
48849;SDS011;63210;53.370;6.770;2023-05-07T13:36:44;27.23;;;24.83;;
48849;SDS011;63210;53.370;6.770;2023-05-07T13:39:09;23.48;;;21.05;;
48849;SDS011;63210;53.370;6.770;2023-05-07T13:41:34;25.30;;;22.88;;
48849;SDS011;63210;53.370;6.770;2023-05-07T13:44:00;24.57;;;22.27;;
48849;SDS011;63210;53.370;6.770;2023-05-07T13:46:25;25.80;;;23.40;;
48849;SDS011;63210;53.370;6.770;2023-05-07T13:48:50;21.67;;;19.48;;
48849;SDS011;63210;53.370;6.770;2023-05-07T13:51:16;25.25;;;22.90;;
48849;SDS011;63210;53.370;6.770;2023-05-07T13:53:42;24.98;;;22.67;;
48849;SDS011;63210;53.370;6.770;2023-05-07T13:56:07;25.20;;;22.23;;
48849;SDS011;63210;53.370;6.770;2023-05-07T13:58:32;24.92;;;22.63;;
48849;SDS011;63210;53.370;6.770;2023-05-07T14:00:58;24.17;;;21.88;;
48849;SDS011;63210;53.370;6.770;2023-05-07T14:03:23;24.83;;;22.05;;
48849;SDS011;63210;53.370;6.770;2023-05-07T14:05:48;24.00;;;21.27;;
48849;SDS011;63210;53.370;6.770;2023-05-07T14:08:13;24.02;;;21.83;;
48849;SDS011;63210;53.370;6.770;2023-05-07T14:10:42;22.23;;;20.08;;
48849;SDS011;63210;53.370;6.770;2023-05-07T14:13:07;20.83;;;18.83;;
48849;SDS011;63210;53.370;6.770;2023-05-07T14:15:32;20.60;;;18.50;;
48849;SDS011;63210;53.370;6.770;2023-05-07T14:17:58;22.90;;;20.80;;
48849;SDS011;63210;53.370;6.770;2023-05-07T14:20:24;22.92;;;20.83;;
48849;SDS011;63210;53.370;6.770;2023-05-07T14:22:50;22.48;;;20.38;;
48849;SDS011;63210;53.370;6.770;2023-05-07T14:25:15;21.38;;;19.38;;
48849;SDS011;63210;53.370;6.770;2023-05-07T14:27:40;20.73;;;18.60;;
48849;SDS011;63210;53.370;6.770;2023-05-07T14:30:06;21.83;;;19.83;;